createdAt,value
2019-01-25T00:01:11.871Z,24.33
2019-01-25T00:03:43.997Z,27.10
2019-01-25T00:06:16.105Z,28.90
2019-01-25T00:08:48.286Z,44.70
2019-01-25T00:11:20.307Z,47.70
2019-01-25T00:13:54.196Z,34.10
2019-01-25T00:16:26.115Z,28.97
2019-01-25T00:18:58.104Z,29.87
2019-01-25T00:21:30.086Z,26.63
2019-01-25T00:24:02.572Z,27.93
2019-01-25T00:26:34.634Z,25.77
2019-01-25T00:29:06.711Z,27.63
2019-01-25T00:31:38.838Z,24.92
2019-01-25T00:34:11.299Z,25.60
2019-01-25T00:36:43.292Z,25.50
2019-01-25T00:39:18.128Z,27.30
2019-01-25T00:41:50.084Z,28.13
2019-01-25T00:44:22.147Z,31.93
2019-01-25T00:46:54.183Z,39.95
2019-01-25T00:49:26.483Z,36.73
2019-01-25T00:51:58.483Z,30.10
2019-01-25T00:54:30.419Z,28.33
2019-01-25T00:57:02.629Z,27.70
2019-01-25T00:59:34.569Z,22.40
2019-01-25T01:02:06.959Z,20.93
2019-01-25T01:04:38.993Z,21.47
2019-01-25T01:07:16.230Z,22.47
2019-01-25T01:09:48.475Z,20.30
2019-01-25T01:12:21.402Z,22.63
2019-01-25T01:14:53.470Z,23.90
2019-01-25T01:17:28.376Z,22.33
2019-01-25T01:20:00.310Z,22.73
2019-01-25T01:22:32.402Z,22.60
2019-01-25T01:25:04.955Z,24.17
2019-01-25T01:27:38.264Z,26.90
2019-01-25T01:30:13.640Z,31.00
2019-01-25T01:32:45.622Z,40.03
2019-01-25T01:35:17.861Z,32.97
2019-01-25T01:37:51.139Z,30.97
2019-01-25T01:40:26.446Z,25.90
2019-01-25T01:42:58.456Z,23.77
2019-01-25T01:45:30.525Z,24.27
2019-01-25T01:48:02.512Z,27.67
2019-01-25T01:50:36.119Z,29.03
2019-01-25T01:53:08.192Z,28.70
2019-01-25T01:55:40.184Z,28.50
2019-01-25T01:58:12.299Z,25.30
2019-01-25T02:00:44.383Z,22.33
2019-01-25T02:03:19.433Z,21.97
2019-01-25T02:05:51.433Z,22.73
2019-01-25T02:08:23.807Z,24.40
2019-01-25T02:10:55.898Z,23.70
2019-01-25T02:13:28.074Z,21.60
2019-01-25T02:16:02.446Z,22.20
2019-01-25T02:18:34.433Z,21.40
2019-01-25T02:21:08.354Z,22.23
2019-01-25T02:23:40.319Z,19.73
2019-01-25T02:26:12.328Z,20.47
2019-01-25T02:28:44.319Z,21.23
2019-01-25T02:31:19.161Z,20.50
2019-01-25T02:33:51.143Z,22.27
2019-01-25T02:36:23.121Z,20.53
2019-01-25T02:38:55.142Z,20.57
2019-01-25T02:41:27.138Z,20.03
2019-01-25T02:43:59.115Z,21.30
2019-01-25T02:46:35.161Z,19.03
2019-01-25T02:49:08.439Z,18.87
2019-01-25T02:51:40.412Z,17.93
2019-01-25T02:54:13.345Z,18.73
2019-01-25T02:56:45.327Z,18.13
2019-01-25T02:59:17.382Z,18.60
2019-01-25T03:01:49.497Z,18.90
2019-01-25T03:04:23.256Z,18.87
2019-01-25T03:06:56.925Z,19.57
2019-01-25T03:09:28.852Z,19.27
2019-01-25T03:12:00.890Z,19.37
2019-01-25T03:14:32.864Z,18.20
2019-01-25T03:17:04.927Z,18.67
2019-01-25T03:19:37.459Z,18.43
2019-01-25T03:22:09.625Z,18.60
2019-01-25T03:24:41.617Z,19.47
2019-01-25T03:27:13.609Z,19.07
2019-01-25T03:29:45.529Z,18.70
2019-01-25T03:32:19.492Z,18.67
2019-01-25T03:34:51.512Z,19.80
2019-01-25T03:37:23.487Z,16.93
2019-01-25T03:39:57.051Z,17.17
2019-01-25T03:42:29.034Z,18.40
2019-01-25T03:45:03.966Z,18.87
2019-01-25T03:47:37.833Z,21.07
2019-01-25T03:50:11.888Z,18.77
2019-01-25T03:52:44.091Z,17.37
2019-01-25T03:55:16.390Z,18.67
2019-01-25T03:57:48.416Z,18.33
2019-01-25T04:00:22.232Z,17.80
2019-01-25T04:02:54.430Z,17.70
2019-01-25T04:05:29.569Z,17.37
2019-01-25T04:08:01.647Z,17.53
2019-01-25T04:10:33.727Z,15.47
2019-01-25T04:13:06.379Z,15.57
2019-01-25T04:15:39.584Z,16.47
2019-01-25T04:18:11.553Z,15.90
2019-01-25T04:20:43.984Z,15.10
2019-01-25T04:23:15.938Z,15.27
2019-01-25T04:25:48.014Z,16.23
2019-01-25T04:28:20.041Z,15.43
2019-01-25T04:30:52.115Z,15.23
2019-01-25T04:33:24.086Z,15.57
2019-01-25T04:35:56.055Z,15.40
2019-01-25T04:38:28.076Z,14.50
2019-01-25T04:41:00.011Z,14.83
2019-01-25T04:43:31.983Z,13.90
2019-01-25T04:46:04.120Z,13.63
2019-01-25T04:48:36.153Z,13.97
2019-01-25T04:51:11.164Z,13.33
2019-01-25T04:53:43.340Z,13.50
2019-01-25T04:56:15.433Z,13.03
2019-01-25T04:58:47.464Z,12.63
2019-01-25T05:01:19.552Z,13.10
2019-01-25T05:03:51.508Z,12.07
2019-01-25T05:06:23.516Z,12.17
2019-01-25T05:08:55.441Z,13.00
2019-01-25T05:11:27.995Z,12.90
2019-01-25T05:13:59.947Z,13.43
2019-01-25T05:16:31.917Z,14.63
2019-01-25T05:19:03.899Z,13.93
2019-01-25T05:21:35.864Z,14.43
2019-01-25T05:24:12.722Z,13.53
2019-01-25T05:26:45.185Z,14.07
2019-01-25T05:29:19.697Z,12.90
2019-01-25T05:31:54.238Z,13.13
2019-01-25T05:34:26.304Z,13.20
2019-01-25T05:36:58.309Z,13.57
2019-01-25T05:39:30.338Z,11.63
2019-01-25T05:42:02.313Z,11.90
2019-01-25T05:44:34.353Z,12.40
2019-01-25T05:47:10.266Z,12.40
2019-01-25T05:49:44.132Z,12.53
2019-01-25T05:52:20.915Z,12.83
2019-01-25T05:54:52.806Z,13.33
2019-01-25T05:57:24.745Z,11.87
2019-01-25T05:59:56.675Z,12.23
2019-01-25T06:02:30.141Z,12.30
2019-01-25T06:05:02.061Z,11.83
2019-01-25T06:07:34.012Z,11.67
2019-01-25T06:10:07.091Z,11.30
2019-01-25T06:12:39.058Z,11.30
2019-01-25T06:15:11.246Z,10.57
2019-01-25T06:17:43.425Z,10.33
2019-01-25T06:20:15.930Z,10.47
2019-01-25T06:22:49.895Z,10.40
2019-01-25T06:25:21.803Z,10.60
2019-01-25T06:27:53.773Z,12.27
2019-01-25T06:30:25.817Z,10.47
2019-01-25T06:32:57.715Z,11.07
2019-01-25T06:35:31.643Z,9.60
2019-01-25T06:38:03.588Z,10.50
2019-01-25T06:40:35.785Z,10.90
2019-01-25T06:43:07.670Z,10.50
2019-01-25T06:45:39.728Z,11.50
2019-01-25T06:48:12.021Z,11.47
2019-01-25T06:50:44.082Z,10.47
2019-01-25T06:53:15.991Z,10.07
2019-01-25T06:55:47.978Z,10.60
2019-01-25T06:58:37.218Z,9.80
2019-01-25T07:01:17.012Z,10.37
2019-01-25T07:03:48.942Z,9.17
2019-01-25T07:06:24.084Z,9.60
2019-01-25T07:08:55.986Z,9.97
2019-01-25T07:11:27.952Z,10.53
2019-01-25T07:13:59.895Z,9.63
2019-01-25T07:16:31.819Z,9.37
2019-01-25T07:19:03.771Z,10.03
2019-01-25T07:21:35.680Z,10.40
2019-01-25T07:24:07.734Z,9.23
2019-01-25T07:26:40.066Z,10.17
2019-01-25T07:29:12.052Z,9.97
2019-01-25T07:31:46.206Z,9.90
2019-01-25T07:34:17.828Z,10.40
2019-01-25T07:36:49.817Z,10.10
2019-01-25T07:39:27.687Z,10.60
2019-01-25T07:42:02.243Z,10.03
2019-01-25T07:44:33.318Z,9.10
2019-01-25T07:47:05.548Z,9.57
2019-01-25T07:49:37.653Z,9.13
2019-01-25T07:52:09.728Z,8.90
2019-01-25T07:54:41.822Z,9.33
2019-01-25T07:57:13.837Z,9.13
2019-01-25T07:59:47.793Z,8.80
2019-01-25T08:02:19.949Z,8.50
2019-01-25T08:04:51.897Z,8.57
2019-01-25T08:07:23.831Z,8.87
2019-01-25T08:09:55.874Z,8.77
2019-01-25T08:12:27.845Z,9.33
2019-01-25T08:14:59.799Z,8.37
2019-01-25T08:17:31.711Z,8.80
2019-01-25T08:20:37.820Z,9.40
2019-01-25T08:23:09.963Z,8.80
2019-01-25T08:25:53.371Z,8.77
2019-01-25T08:28:25.449Z,8.30
2019-01-25T08:30:57.688Z,8.50
2019-01-25T08:33:32.027Z,9.37
2019-01-25T08:36:05.041Z,10.07
2019-01-25T08:38:36.953Z,9.97
2019-01-25T08:41:08.945Z,10.07
2019-01-25T08:43:40.895Z,9.13
2019-01-25T08:46:12.907Z,8.27
2019-01-25T08:48:44.828Z,8.70
2019-01-25T08:51:16.810Z,8.20
2019-01-25T08:53:48.797Z,8.90
2019-01-25T08:56:23.396Z,9.03
2019-01-25T08:58:58.791Z,8.87
2019-01-25T09:01:30.723Z,10.40
2019-01-25T09:04:02.698Z,10.23
2019-01-25T09:06:34.739Z,10.13
2019-01-25T09:09:10.711Z,8.60
2019-01-25T09:11:42.756Z,8.23
2019-01-25T09:14:15.220Z,8.50
2019-01-25T09:16:47.272Z,8.10
2019-01-25T09:19:19.329Z,8.20
2019-01-25T09:21:51.539Z,7.80
2019-01-25T09:24:23.610Z,8.10
2019-01-25T09:26:55.540Z,7.28
2019-01-25T09:29:27.481Z,7.47
2019-01-25T09:31:59.542Z,9.40
2019-01-25T09:34:31.496Z,7.00
2019-01-25T09:37:03.447Z,8.40
2019-01-25T09:39:37.022Z,6.97
2019-01-25T09:42:10.714Z,8.40
2019-01-25T09:44:42.718Z,8.68
2019-01-25T09:47:14.692Z,7.60
2019-01-25T09:49:46.610Z,7.65
2019-01-25T09:52:18.560Z,7.45
2019-01-25T09:54:50.479Z,7.92
2019-01-25T09:57:23.211Z,8.85
2019-01-25T09:59:55.126Z,8.90
2019-01-25T10:02:27.083Z,9.43
2019-01-25T10:04:59.001Z,9.83
2019-01-25T10:07:31.011Z,9.30
2019-01-25T10:10:03.076Z,10.85
2019-01-25T10:12:43.093Z,9.43
2019-01-25T10:15:11.323Z,8.03
2019-01-25T10:17:43.268Z,8.38
2019-01-25T10:20:16.522Z,7.87
2019-01-25T10:22:51.239Z,8.20
2019-01-25T10:25:23.282Z,9.15
2019-01-25T10:27:55.276Z,8.45
2019-01-25T10:30:27.483Z,8.33
2019-01-25T10:33:00.535Z,8.23
2019-01-25T10:35:32.773Z,7.67
2019-01-25T10:38:04.965Z,7.40
2019-01-25T10:40:36.937Z,7.15
2019-01-25T10:43:08.935Z,6.95
2019-01-25T10:45:43.008Z,7.37
2019-01-25T10:48:15.420Z,7.58
2019-01-25T10:50:47.340Z,6.90
2019-01-25T10:53:19.287Z,7.30
2019-01-25T10:55:51.238Z,6.47
2019-01-25T10:58:23.501Z,6.53
2019-01-25T11:00:55.703Z,6.80
2019-01-25T11:03:27.670Z,6.92
2019-01-25T11:05:59.642Z,5.95
2019-01-25T11:08:32.911Z,7.83
2019-01-25T11:11:05.101Z,7.50
2019-01-25T11:13:38.320Z,7.35
2019-01-25T11:16:12.063Z,7.28
2019-01-25T11:18:44.381Z,6.62
2019-01-25T11:21:16.363Z,5.87
2019-01-25T11:23:48.292Z,9.95
2019-01-25T11:26:20.437Z,7.65
2019-01-25T11:28:52.366Z,8.63
2019-01-25T11:31:24.383Z,6.67
2019-01-25T11:33:56.302Z,5.25
2019-01-25T11:36:28.262Z,5.83
2019-01-25T11:39:00.183Z,6.42
2019-01-25T11:41:32.152Z,5.50
2019-01-25T11:44:04.340Z,5.40
2019-01-25T11:46:38.027Z,6.08
2019-01-25T11:49:09.942Z,6.00
2019-01-25T11:51:41.917Z,6.45
2019-01-25T11:54:13.846Z,6.20
2019-01-25T11:56:45.784Z,6.50
2019-01-25T11:59:18.180Z,9.05
2019-01-25T12:01:50.425Z,7.10
2019-01-25T12:04:22.438Z,5.75
2019-01-25T12:06:54.527Z,5.80
2019-01-25T12:09:26.476Z,5.28
2019-01-25T12:11:58.461Z,5.45
2019-01-25T12:14:30.458Z,6.37
2019-01-25T12:17:02.434Z,5.30
2019-01-25T12:19:34.457Z,5.85
2019-01-25T12:22:06.414Z,7.08
2019-01-25T12:24:38.993Z,6.10
2019-01-25T12:27:10.919Z,9.80
2019-01-25T12:29:42.823Z,6.90
2019-01-25T12:34:41.708Z,6.22
2019-01-25T12:37:13.615Z,6.33
2019-01-25T12:39:45.583Z,5.85
2019-01-25T12:42:18.494Z,6.08
2019-01-25T12:44:50.434Z,6.22
2019-01-25T12:47:22.383Z,6.37
2019-01-25T12:49:54.453Z,5.37
2019-01-25T12:52:26.436Z,5.95
2019-01-25T12:54:58.375Z,6.30
2019-01-25T12:57:30.323Z,5.90
2019-01-25T13:00:08.641Z,6.65
2019-01-25T13:02:40.683Z,6.97
2019-01-25T13:05:15.293Z,7.60
2019-01-25T13:07:48.377Z,7.20
2019-01-25T13:10:20.757Z,7.30
2019-01-25T13:12:52.769Z,7.85
2019-01-25T13:15:27.196Z,7.37
2019-01-25T13:17:59.103Z,7.92
2019-01-25T13:20:31.208Z,8.03
2019-01-25T13:23:03.235Z,8.30
2019-01-25T13:25:35.281Z,8.30
2019-01-25T13:28:07.184Z,8.08
2019-01-25T13:30:39.277Z,9.40
2019-01-25T13:33:11.705Z,7.75
2019-01-25T13:35:43.663Z,8.03
2019-01-25T13:38:15.727Z,7.22
2019-01-25T13:40:47.890Z,7.75
2019-01-25T13:43:19.912Z,7.42
2019-01-25T13:45:51.872Z,6.75
2019-01-25T13:48:25.076Z,7.47
2019-01-25T13:50:57.069Z,8.53
2019-01-25T13:53:29.007Z,8.53
2019-01-25T13:56:00.945Z,7.33
2019-01-25T13:58:35.662Z,7.47
2019-01-25T14:01:07.641Z,7.05
2019-01-25T14:03:39.613Z,6.60
2019-01-25T14:06:11.599Z,6.65
2019-01-25T14:08:43.508Z,7.75
2019-01-25T14:11:15.493Z,6.92
2019-01-25T14:13:47.483Z,6.03
2019-01-25T14:16:19.884Z,6.55
2019-01-25T14:18:52.224Z,6.00
2019-01-25T14:21:25.576Z,6.85
2019-01-25T14:23:57.746Z,6.92
2019-01-25T14:26:29.733Z,6.70
2019-01-25T14:29:01.693Z,6.33
2019-01-25T14:31:33.607Z,6.60
2019-01-25T14:34:05.688Z,6.62
2019-01-25T14:36:37.747Z,6.80
2019-01-25T14:39:10.767Z,6.03
2019-01-25T14:41:42.799Z,6.33
2019-01-25T14:44:16.617Z,5.50
2019-01-25T14:46:48.531Z,5.92
2019-01-25T14:49:21.752Z,4.87
2019-01-25T14:51:54.092Z,5.55
2019-01-25T14:54:26.173Z,5.08
2019-01-25T14:56:58.118Z,4.78
2019-01-25T14:59:30.088Z,4.60
2019-01-25T15:02:02.094Z,3.85
2019-01-25T15:04:34.367Z,4.35
2019-01-25T15:07:06.287Z,4.20
2019-01-25T15:09:40.138Z,4.25
2019-01-25T15:12:12.144Z,4.15
2019-01-25T15:14:44.105Z,4.12
2019-01-25T15:17:16.045Z,4.08
2019-01-25T15:19:48.153Z,4.58
2019-01-25T15:22:20.176Z,4.40
2019-01-25T15:24:52.082Z,4.97
2019-01-25T15:27:24.180Z,5.37
2019-01-25T15:29:56.208Z,5.35
2019-01-25T15:32:28.128Z,5.37
2019-01-25T15:35:00.265Z,5.87
2019-01-25T15:37:32.381Z,5.70
2019-01-25T15:40:05.365Z,5.22
2019-01-25T15:42:37.401Z,5.65
2019-01-25T15:45:11.394Z,4.78
2019-01-25T15:47:43.356Z,4.67
2019-01-25T15:50:19.011Z,5.37
2019-01-25T15:52:51.016Z,5.70
2019-01-25T15:55:23.655Z,6.28
2019-01-25T15:57:55.914Z,6.28
2019-01-25T16:00:29.490Z,5.53
2019-01-25T16:03:01.545Z,6.10
2019-01-25T16:05:33.536Z,5.80
2019-01-25T16:08:06.411Z,5.47
2019-01-25T16:10:38.347Z,6.08
2019-01-25T16:13:10.340Z,5.47
2019-01-25T16:15:42.286Z,6.20
2019-01-25T16:18:14.469Z,6.15
2019-01-25T16:20:46.494Z,6.83
2019-01-25T16:23:18.455Z,6.92
2019-01-25T16:25:50.370Z,6.25
2019-01-25T16:28:22.364Z,6.37
2019-01-25T16:30:54.291Z,5.97
2019-01-25T16:33:26.258Z,6.85
2019-01-25T16:35:58.181Z,6.75
2019-01-25T16:38:32.640Z,6.05
2019-01-25T16:41:05.107Z,5.45
2019-01-25T16:43:37.031Z,6.20
2019-01-25T16:46:09.200Z,5.30
2019-01-25T16:48:41.137Z,5.47
2019-01-25T16:51:13.087Z,5.95
2019-01-25T16:53:44.991Z,5.92
2019-01-25T16:56:16.945Z,5.62
2019-01-25T16:58:51.091Z,5.87
2019-01-25T17:01:23.698Z,5.87
2019-01-25T17:03:55.604Z,4.62
2019-01-25T17:06:27.766Z,4.72
2019-01-25T17:09:05.031Z,5.90
2019-01-25T17:11:37.131Z,6.17
2019-01-25T17:14:09.871Z,5.65
2019-01-25T17:16:41.843Z,18.85
2019-01-25T17:19:13.886Z,12.78
2019-01-25T17:21:45.842Z,7.42
2019-01-25T17:24:17.789Z,8.18
2019-01-25T17:26:49.743Z,7.20
2019-01-25T17:29:21.704Z,6.70
2019-01-25T17:31:54.654Z,8.50
2019-01-25T17:34:26.658Z,10.90
2019-01-25T17:36:58.631Z,9.50
2019-01-25T17:39:30.598Z,42.65
2019-01-25T17:42:04.280Z,24.45
2019-01-25T17:44:41.329Z,21.07
2019-01-25T17:47:10.165Z,19.57
2019-01-25T17:49:42.266Z,14.15
2019-01-25T17:52:14.291Z,13.95
2019-01-25T17:54:46.438Z,17.50
2019-01-25T17:57:19.540Z,21.17
2019-01-25T17:59:52.570Z,21.02
2019-01-25T18:02:24.801Z,18.05
2019-01-25T18:04:56.760Z,14.65
2019-01-25T18:07:29.026Z,15.45
2019-01-25T18:10:01.090Z,15.30
2019-01-25T18:12:33.139Z,17.77
2019-01-25T18:15:06.194Z,22.15
2019-01-25T18:17:38.207Z,18.45
2019-01-25T18:20:12.412Z,22.42
2019-01-25T18:22:44.772Z,19.00
2019-01-25T18:25:19.980Z,20.32
2019-01-25T18:27:55.837Z,20.23
2019-01-25T18:30:38.122Z,21.10
2019-01-25T18:33:10.180Z,21.97
2019-01-25T18:35:42.174Z,20.35
2019-01-25T18:38:14.106Z,34.43
2019-01-25T18:40:48.741Z,24.18
2019-01-25T18:43:20.660Z,24.77
2019-01-25T18:45:52.619Z,25.55
2019-01-25T18:48:24.520Z,26.40
2019-01-25T18:50:56.474Z,31.85
2019-01-25T18:53:29.557Z,42.90
2019-01-25T18:56:13.116Z,40.40
2019-01-25T18:58:57.124Z,36.38
2019-01-25T19:01:32.292Z,34.53
2019-01-25T19:04:11.573Z,32.45
2019-01-25T19:06:50.707Z,37.33
2019-01-25T19:09:25.588Z,32.40
2019-01-25T19:12:02.892Z,32.25
2019-01-25T19:14:47.234Z,36.30
2019-01-25T19:17:25.627Z,43.90
2019-01-25T19:20:05.840Z,54.20
2019-01-25T19:22:42.252Z,57.78
2019-01-25T19:25:15.266Z,51.40
2019-01-25T19:27:51.588Z,57.80
2019-01-25T19:30:31.011Z,62.98
2019-01-25T19:33:29.595Z,57.00
2019-01-25T19:36:04.220Z,59.08
2019-01-25T19:38:38.275Z,64.30
2019-01-25T19:41:12.557Z,64.87
2019-01-25T19:43:46.657Z,62.48
2019-01-25T19:46:22.103Z,49.15
2019-01-25T19:49:03.652Z,56.48
2019-01-25T19:51:37.956Z,57.83
2019-01-25T19:54:10.840Z,55.40
2019-01-25T19:56:43.410Z,55.05
2019-01-25T19:59:15.668Z,53.55
2019-01-25T20:01:49.077Z,61.75
2019-01-25T20:04:21.152Z,56.33
2019-01-25T20:07:04.017Z,57.58
2019-01-25T20:09:38.122Z,57.73
2019-01-25T20:12:10.499Z,63.33
2019-01-25T20:14:42.569Z,58.92
2019-01-25T20:17:15.351Z,67.12
2019-01-25T20:19:59.753Z,55.28
2019-01-25T20:22:42.278Z,57.65
2019-01-25T20:25:14.968Z,58.33
2019-01-25T20:27:48.197Z,67.10
2019-01-25T20:30:27.313Z,67.40
2019-01-25T20:33:00.997Z,67.30
2019-01-25T20:35:35.414Z,68.85
2019-01-25T20:38:07.617Z,65.00
2019-01-25T20:40:41.199Z,63.45
2019-01-25T20:43:13.563Z,60.60
2019-01-25T20:45:45.708Z,63.00
2019-01-25T20:48:18.359Z,60.80
2019-01-25T20:50:50.475Z,61.53
2019-01-25T20:53:23.485Z,65.78
2019-01-25T20:55:57.411Z,67.78
2019-01-25T20:58:29.361Z,68.85
2019-01-25T21:01:01.492Z,78.45
2019-01-25T21:03:33.588Z,73.95
2019-01-25T21:06:06.427Z,79.53
2019-01-25T21:08:46.223Z,72.20
2019-01-25T21:11:18.956Z,68.55
2019-01-25T21:13:51.751Z,65.97
2019-01-25T21:16:24.147Z,66.72
2019-01-25T21:18:56.316Z,61.02
2019-01-25T21:21:29.525Z,61.15
2019-01-25T21:24:01.546Z,60.00
2019-01-25T21:26:33.633Z,59.00
2019-01-25T21:29:07.114Z,60.83
2019-01-25T21:31:39.266Z,62.85
2019-01-25T21:34:12.640Z,61.28
2019-01-25T21:36:44.550Z,58.48
2019-01-25T21:39:16.576Z,58.35
2019-01-25T21:41:48.579Z,56.53
2019-01-25T21:44:20.547Z,56.88
2019-01-25T21:46:52.900Z,58.52
2019-01-25T21:49:24.833Z,64.85
2019-01-25T21:51:57.241Z,68.75
2019-01-25T21:54:30.916Z,62.58
2019-01-25T21:57:02.943Z,56.08
2019-01-25T21:59:34.874Z,60.83
2019-01-25T22:02:07.148Z,61.30
2019-01-25T22:04:39.064Z,60.85
2019-01-25T22:07:11.675Z,61.77
2019-01-25T22:09:43.623Z,61.88
2019-01-25T22:12:15.771Z,59.95
2019-01-25T22:14:49.827Z,60.85
2019-01-25T22:17:23.555Z,59.98
2019-01-25T22:19:55.542Z,61.15
2019-01-25T22:22:27.506Z,55.78
2019-01-25T22:24:59.470Z,61.42
2019-01-25T22:27:31.427Z,56.92
2019-01-25T22:30:03.609Z,58.65
2019-01-25T22:32:36.823Z,60.52
2019-01-25T22:35:09.124Z,67.35
2019-01-25T22:37:41.076Z,68.33
2019-01-25T22:40:15.907Z,66.47
2019-01-25T22:42:49.906Z,66.57
2019-01-25T22:45:23.743Z,62.45
2019-01-25T22:47:56.246Z,60.35
2019-01-25T22:50:30.213Z,61.15
2019-01-25T22:53:02.220Z,64.70
2019-01-25T22:55:34.213Z,61.30
2019-01-25T22:58:07.305Z,70.03
2019-01-25T23:00:57.667Z,70.50
2019-01-25T23:03:48.916Z,68.22
2019-01-25T23:06:47.942Z,70.70
2019-01-25T23:09:23.488Z,71.25
2019-01-25T23:11:55.767Z,72.45
2019-01-25T23:14:27.797Z,68.28
2019-01-25T23:16:59.774Z,69.23
2019-01-25T23:19:31.692Z,68.92
2019-01-25T23:22:05.596Z,63.65
2019-01-25T23:24:37.608Z,58.63
2019-01-25T23:27:09.607Z,62.23
2019-01-25T23:29:41.558Z,62.80
2019-01-25T23:32:13.863Z,64.35
2019-01-25T23:34:45.913Z,64.10
2019-01-25T23:37:17.883Z,63.20
2019-01-25T23:39:50.004Z,62.38
2019-01-25T23:42:23.651Z,63.25
2019-01-25T23:44:55.615Z,67.03
2019-01-25T23:47:27.705Z,71.87
2019-01-25T23:49:59.627Z,72.33
2019-01-25T23:52:31.956Z,72.13
2019-01-25T23:55:04.289Z,73.60
2019-01-25T23:57:36.632Z,78.40
